sensor_id;sensor_type;location;lat;lon;timestamp;P1;durP1;ratioP1;P2;durP2;ratioP2
27863;SDS011;15980;51.092;13.916;2024-01-25T00:05:40;10.82;;;1.88;;
27863;SDS011;15980;51.092;13.916;2024-01-25T00:15:40;12.63;;;1.80;;
27863;SDS011;15980;51.092;13.916;2024-01-25T00:25:40;13.25;;;1.40;;
27863;SDS011;15980;51.092;13.916;2024-01-25T00:35:41;15.40;;;2.50;;
27863;SDS011;15980;51.092;13.916;2024-01-25T00:45:41;20.92;;;3.35;;
27863;SDS011;15980;51.092;13.916;2024-01-25T00:55:42;9.98;;;2.05;;
27863;SDS011;15980;51.092;13.916;2024-01-25T01:05:42;15.57;;;2.30;;
27863;SDS011;15980;51.092;13.916;2024-01-25T01:15:43;12.70;;;1.85;;
27863;SDS011;15980;51.092;13.916;2024-01-25T01:25:43;17.42;;;2.28;;
27863;SDS011;15980;51.092;13.916;2024-01-25T01:35:43;19.90;;;2.33;;
27863;SDS011;15980;51.092;13.916;2024-01-25T01:45:44;18.25;;;2.30;;
27863;SDS011;15980;51.092;13.916;2024-01-25T01:55:44;21.98;;;2.53;;
27863;SDS011;15980;51.092;13.916;2024-01-25T02:05:44;12.43;;;1.98;;
27863;SDS011;15980;51.092;13.916;2024-01-25T02:15:45;15.85;;;2.13;;
27863;SDS011;15980;51.092;13.916;2024-01-25T02:25:45;19.23;;;3.10;;
27863;SDS011;15980;51.092;13.916;2024-01-25T02:35:45;24.73;;;3.40;;
27863;SDS011;15980;51.092;13.916;2024-01-25T02:45:46;12.85;;;2.50;;
27863;SDS011;15980;51.092;13.916;2024-01-25T02:55:46;17.73;;;2.53;;
27863;SDS011;15980;51.092;13.916;2024-01-25T03:05:46;14.73;;;2.85;;
27863;SDS011;15980;51.092;13.916;2024-01-25T03:15:46;20.70;;;3.17;;
27863;SDS011;15980;51.092;13.916;2024-01-25T03:25:47;16.42;;;2.58;;
27863;SDS011;15980;51.092;13.916;2024-01-25T03:35:47;11.85;;;2.05;;
27863;SDS011;15980;51.092;13.916;2024-01-25T03:45:47;18.23;;;2.33;;
27863;SDS011;15980;51.092;13.916;2024-01-25T03:55:48;31.77;;;3.22;;
27863;SDS011;15980;51.092;13.916;2024-01-25T04:05:48;21.85;;;2.88;;
27863;SDS011;15980;51.092;13.916;2024-01-25T04:15:48;15.70;;;2.47;;
27863;SDS011;15980;51.092;13.916;2024-01-25T04:25:48;20.00;;;2.92;;
27863;SDS011;15980;51.092;13.916;2024-01-25T04:35:49;24.25;;;4.15;;
27863;SDS011;15980;51.092;13.916;2024-01-25T04:45:49;21.63;;;2.90;;
27863;SDS011;15980;51.092;13.916;2024-01-25T04:55:49;12.20;;;2.58;;
27863;SDS011;15980;51.092;13.916;2024-01-25T05:05:50;14.00;;;1.80;;
27863;SDS011;15980;51.092;13.916;2024-01-25T05:15:50;13.68;;;2.38;;
27863;SDS011;15980;51.092;13.916;2024-01-25T05:25:50;14.73;;;3.22;;
27863;SDS011;15980;51.092;13.916;2024-01-25T05:35:50;29.25;;;4.53;;
27863;SDS011;15980;51.092;13.916;2024-01-25T05:45:52;17.70;;;2.77;;
27863;SDS011;15980;51.092;13.916;2024-01-25T05:55:52;19.27;;;2.92;;
27863;SDS011;15980;51.092;13.916;2024-01-25T06:05:53;20.15;;;3.65;;
27863;SDS011;15980;51.092;13.916;2024-01-25T06:15:53;17.08;;;2.45;;
27863;SDS011;15980;51.092;13.916;2024-01-25T06:25:53;19.73;;;3.00;;
27863;SDS011;15980;51.092;13.916;2024-01-25T06:35:54;13.98;;;2.15;;
27863;SDS011;15980;51.092;13.916;2024-01-25T06:45:55;17.95;;;3.00;;
27863;SDS011;15980;51.092;13.916;2024-01-25T06:55:55;10.65;;;2.53;;
27863;SDS011;15980;51.092;13.916;2024-01-25T07:05:55;28.15;;;3.05;;
27863;SDS011;15980;51.092;13.916;2024-01-25T07:15:56;15.55;;;2.75;;
27863;SDS011;15980;51.092;13.916;2024-01-25T07:25:56;20.58;;;2.50;;
27863;SDS011;15980;51.092;13.916;2024-01-25T07:35:56;12.52;;;3.13;;
27863;SDS011;15980;51.092;13.916;2024-01-25T07:45:57;15.15;;;2.30;;
27863;SDS011;15980;51.092;13.916;2024-01-25T07:55:57;15.32;;;1.63;;
27863;SDS011;15980;51.092;13.916;2024-01-25T08:05:58;14.60;;;2.80;;
27863;SDS011;15980;51.092;13.916;2024-01-25T08:15:59;12.53;;;1.57;;
27863;SDS011;15980;51.092;13.916;2024-01-25T08:26:00;7.80;;;1.13;;
27863;SDS011;15980;51.092;13.916;2024-01-25T08:36:00;16.17;;;1.95;;
27863;SDS011;15980;51.092;13.916;2024-01-25T08:46:00;11.40;;;1.35;;
27863;SDS011;15980;51.092;13.916;2024-01-25T08:56:01;8.93;;;1.27;;
27863;SDS011;15980;51.092;13.916;2024-01-25T09:06:01;8.75;;;1.38;;
27863;SDS011;15980;51.092;13.916;2024-01-25T09:16:01;12.48;;;1.88;;
27863;SDS011;15980;51.092;13.916;2024-01-25T09:26:02;15.95;;;1.30;;
27863;SDS011;15980;51.092;13.916;2024-01-25T09:36:02;12.57;;;2.33;;
27863;SDS011;15980;51.092;13.916;2024-01-25T09:46:03;19.90;;;1.90;;
27863;SDS011;15980;51.092;13.916;2024-01-25T09:56:06;10.00;;;1.30;;
27863;SDS011;15980;51.092;13.916;2024-01-25T10:06:07;8.07;;;1.73;;
27863;SDS011;15980;51.092;13.916;2024-01-25T10:16:14;6.97;;;1.05;;
27863;SDS011;15980;51.092;13.916;2024-01-25T10:26:16;5.28;;;1.17;;
27863;SDS011;15980;51.092;13.916;2024-01-25T10:36:17;11.68;;;1.67;;
27863;SDS011;15980;51.092;13.916;2024-01-25T10:46:17;6.85;;;1.10;;
27863;SDS011;15980;51.092;13.916;2024-01-25T10:56:18;3.58;;;1.15;;
27863;SDS011;15980;51.092;13.916;2024-01-25T11:06:20;17.58;;;2.28;;
27863;SDS011;15980;51.092;13.916;2024-01-25T11:16:31;8.47;;;1.33;;
27863;SDS011;15980;51.092;13.916;2024-01-25T11:26:32;12.15;;;1.75;;
27863;SDS011;15980;51.092;13.916;2024-01-25T11:36:32;5.40;;;0.85;;
27863;SDS011;15980;51.092;13.916;2024-01-25T11:46:33;10.00;;;1.80;;
27863;SDS011;15980;51.092;13.916;2024-01-25T11:56:33;17.40;;;2.22;;
27863;SDS011;15980;51.092;13.916;2024-01-25T12:06:38;6.80;;;1.60;;
27863;SDS011;15980;51.092;13.916;2024-01-25T12:16:38;11.82;;;1.67;;
27863;SDS011;15980;51.092;13.916;2024-01-25T12:26:39;6.78;;;1.17;;
27863;SDS011;15980;51.092;13.916;2024-01-25T12:36:41;15.40;;;1.45;;
27863;SDS011;15980;51.092;13.916;2024-01-25T12:46:42;3.45;;;0.77;;
27863;SDS011;15980;51.092;13.916;2024-01-25T12:56:42;11.80;;;2.20;;
27863;SDS011;15980;51.092;13.916;2024-01-25T13:06:42;10.68;;;1.20;;
27863;SDS011;15980;51.092;13.916;2024-01-25T13:16:42;4.85;;;0.60;;
27863;SDS011;15980;51.092;13.916;2024-01-25T13:26:43;6.97;;;2.00;;
27863;SDS011;15980;51.092;13.916;2024-01-25T13:36:43;19.27;;;2.80;;
27863;SDS011;15980;51.092;13.916;2024-01-25T13:46:43;10.43;;;1.60;;
27863;SDS011;15980;51.092;13.916;2024-01-25T13:56:44;8.60;;;1.50;;
27863;SDS011;15980;51.092;13.916;2024-01-25T14:06:44;13.57;;;2.13;;
27863;SDS011;15980;51.092;13.916;2024-01-25T14:16:44;15.07;;;1.60;;
27863;SDS011;15980;51.092;13.916;2024-01-25T14:26:44;7.78;;;1.35;;
27863;SDS011;15980;51.092;13.916;2024-01-25T14:36:45;17.70;;;1.90;;
27863;SDS011;15980;51.092;13.916;2024-01-25T14:46:45;12.85;;;1.63;;
27863;SDS011;15980;51.092;13.916;2024-01-25T14:56:45;16.67;;;1.92;;
27863;SDS011;15980;51.092;13.916;2024-01-25T15:06:46;10.50;;;1.50;;
27863;SDS011;15980;51.092;13.916;2024-01-25T15:16:46;8.32;;;1.35;;
27863;SDS011;15980;51.092;13.916;2024-01-25T15:26:46;14.02;;;1.90;;
27863;SDS011;15980;51.092;13.916;2024-01-25T15:36:46;7.70;;;1.48;;
27863;SDS011;15980;51.092;13.916;2024-01-25T15:46:47;10.90;;;1.70;;
27863;SDS011;15980;51.092;13.916;2024-01-25T15:56:47;10.52;;;1.45;;
27863;SDS011;15980;51.092;13.916;2024-01-25T16:06:47;19.75;;;2.40;;
27863;SDS011;15980;51.092;13.916;2024-01-25T16:16:48;12.13;;;2.10;;
27863;SDS011;15980;51.092;13.916;2024-01-25T16:26:48;15.02;;;2.20;;
27863;SDS011;15980;51.092;13.916;2024-01-25T16:36:48;13.32;;;2.33;;
27863;SDS011;15980;51.092;13.916;2024-01-25T16:46:49;7.05;;;1.58;;
27863;SDS011;15980;51.092;13.916;2024-01-25T16:56:49;14.18;;;1.90;;
27863;SDS011;15980;51.092;13.916;2024-01-25T17:06:49;16.50;;;2.08;;
27863;SDS011;15980;51.092;13.916;2024-01-25T17:16:49;18.80;;;3.28;;
27863;SDS011;15980;51.092;13.916;2024-01-25T17:26:50;17.48;;;3.17;;
27863;SDS011;15980;51.092;13.916;2024-01-25T17:36:50;12.73;;;2.05;;
27863;SDS011;15980;51.092;13.916;2024-01-25T17:46:50;15.52;;;2.47;;
27863;SDS011;15980;51.092;13.916;2024-01-25T17:56:51;15.65;;;2.72;;
27863;SDS011;15980;51.092;13.916;2024-01-25T18:06:51;10.73;;;2.20;;
27863;SDS011;15980;51.092;13.916;2024-01-25T18:16:51;10.80;;;2.08;;
27863;SDS011;15980;51.092;13.916;2024-01-25T18:26:51;10.63;;;2.03;;
27863;SDS011;15980;51.092;13.916;2024-01-25T18:36:52;17.55;;;2.58;;
27863;SDS011;15980;51.092;13.916;2024-01-25T18:46:52;12.25;;;1.90;;
27863;SDS011;15980;51.092;13.916;2024-01-25T18:56:52;12.73;;;2.60;;
27863;SDS011;15980;51.092;13.916;2024-01-25T19:06:53;19.00;;;2.90;;
27863;SDS011;15980;51.092;13.916;2024-01-25T19:16:55;12.23;;;2.40;;
27863;SDS011;15980;51.092;13.916;2024-01-25T19:26:55;10.48;;;1.83;;
27863;SDS011;15980;51.092;13.916;2024-01-25T19:36:55;22.83;;;2.50;;
27863;SDS011;15980;51.092;13.916;2024-01-25T19:46:55;12.63;;;2.50;;
27863;SDS011;15980;51.092;13.916;2024-01-25T19:56:56;13.30;;;2.45;;
27863;SDS011;15980;51.092;13.916;2024-01-25T20:06:56;9.55;;;2.83;;
27863;SDS011;15980;51.092;13.916;2024-01-25T20:16:56;15.68;;;2.78;;
27863;SDS011;15980;51.092;13.916;2024-01-25T20:26:57;14.85;;;2.20;;
27863;SDS011;15980;51.092;13.916;2024-01-25T20:36:57;18.60;;;2.58;;
27863;SDS011;15980;51.092;13.916;2024-01-25T20:46:57;19.35;;;2.65;;
27863;SDS011;15980;51.092;13.916;2024-01-25T20:56:58;12.38;;;2.05;;
27863;SDS011;15980;51.092;13.916;2024-01-25T21:06:58;14.63;;;2.20;;
27863;SDS011;15980;51.092;13.916;2024-01-25T21:16:58;13.63;;;3.10;;
27863;SDS011;15980;51.092;13.916;2024-01-25T21:26:59;15.90;;;2.83;;
27863;SDS011;15980;51.092;13.916;2024-01-25T21:36:59;14.48;;;2.63;;
27863;SDS011;15980;51.092;13.916;2024-01-25T21:46:59;14.88;;;2.92;;
27863;SDS011;15980;51.092;13.916;2024-01-25T21:57:00;17.45;;;3.22;;
27863;SDS011;15980;51.092;13.916;2024-01-25T22:07:00;13.45;;;3.08;;
27863;SDS011;15980;51.092;13.916;2024-01-25T22:17:00;21.85;;;3.55;;
27863;SDS011;15980;51.092;13.916;2024-01-25T22:27:01;19.52;;;3.00;;
27863;SDS011;15980;51.092;13.916;2024-01-25T22:37:02;20.23;;;2.92;;
27863;SDS011;15980;51.092;13.916;2024-01-25T22:47:02;17.58;;;3.33;;
27863;SDS011;15980;51.092;13.916;2024-01-25T22:57:03;12.10;;;2.90;;
27863;SDS011;15980;51.092;13.916;2024-01-25T23:07:03;10.90;;;2.58;;
27863;SDS011;15980;51.092;13.916;2024-01-25T23:17:04;17.83;;;3.35;;
27863;SDS011;15980;51.092;13.916;2024-01-25T23:27:04;12.60;;;2.90;;
27863;SDS011;15980;51.092;13.916;2024-01-25T23:37:05;19.20;;;4.35;;
27863;SDS011;15980;51.092;13.916;2024-01-25T23:47:06;14.55;;;3.58;;
27863;SDS011;15980;51.092;13.916;2024-01-25T23:57:07;18.08;;;3.58;;
